Time;durP1;ratioP1;P1;durP2;ratioP2;P2;SDS_P1;SDS_P2;PMS_P1;PMS_P2;Temp;Humidity;BMP_temperature;BMP_pressure;BME280_temperature;BME280_humidity;BME280_pressure;Samples;Min_cycle;Max_cycle;Signal;HPM_P1;HPM_P2
2021/12/19 00:00:18;;;;;;;20.67;8.38;;;;;;;6.25;100.00;103608.50;4954787;28;20030;-74
2021/12/19 00:10:37;;;;;;;20.25;8.07;;;;;;;6.23;100.00;103596.09;4954653;28;20098;-74
2021/12/19 00:13:02;;;;;;;25.48;8.57;;;;;;;6.06;100.00;103591.91;4939746;28;20026;-74
2021/12/19 00:15:27;;;;;;;27.83;9.13;;;;;;;5.98;100.00;103581.28;4958515;28;20428;-74
2021/12/19 00:17:53;;;;;;;23.35;8.60;;;;;;;6.00;100.00;103584.84;4957827;28;20031;-74
2021/12/19 00:20:18;;;;;;;31.25;9.70;;;;;;;6.02;100.00;103579.50;4954971;28;20023;-74
2021/12/19 00:22:43;;;;;;;27.52;10.02;;;;;;;5.94;100.00;103570.69;4957074;28;20035;-74
2021/12/19 00:25:09;;;;;;;32.42;11.13;;;;;;;5.93;100.00;103591.16;4960706;28;20478;-73
2021/12/19 00:27:34;;;;;;;36.22;10.30;;;;;;;5.99;100.00;103583.06;4960309;28;20078;-71
2021/12/19 00:29:59;;;;;;;35.83;9.57;;;;;;;5.91;100.00;103579.63;4960248;28;20064;-74
2021/12/19 00:32:25;;;;;;;28.30;9.05;;;;;;;5.74;100.00;103550.53;4959916;28;20469;-74
2021/12/19 00:34:51;;;;;;;34.13;9.30;;;;;;;5.88;100.00;103577.00;4943191;28;20479;-74
2021/12/19 00:37:18;;;;;;;28.70;8.00;;;;;;;5.93;100.00;103568.94;4961314;28;20034;-73
2021/12/19 00:39:44;;;;;;;25.60;9.50;;;;;;;5.84;100.00;103567.28;4959132;28;20055;-74
2021/12/19 00:42:09;;;;;;;28.70;8.00;;;;;;;5.84;100.00;103570.81;4939241;28;20532;-74
2021/12/19 00:44:37;;;;;;;41.67;11.45;;;;;;;5.80;100.00;103568.22;4938623;28;20054;-72
2021/12/19 00:47:07;;;;;;;32.70;8.65;;;;;;;5.74;100.00;103562.97;4958360;28;20037;-74
2021/12/19 00:49:34;;;;;;;44.85;12.80;;;;;;;5.89;100.00;103559.22;4957204;28;20154;-73
2021/12/19 00:52:00;;;;;;;41.05;10.85;;;;;;;5.76;100.00;103563.81;4960840;28;20587;-74
2021/12/19 00:54:25;;;;;;;38.92;9.90;;;;;;;5.71;100.00;103564.78;4956541;28;20026;-74
2021/12/19 00:56:50;;;;;;;43.85;9.68;;;;;;;5.75;100.00;103560.28;4957134;28;20030;-73
2021/12/19 00:59:16;;;;;;;44.45;10.73;;;;;;;5.70;100.00;103556.81;4958292;28;20046;-74
2021/12/19 01:01:43;;;;;;;43.72;10.95;;;;;;;5.66;100.00;103560.41;4940144;28;20424;-74
2021/12/19 01:04:11;;;;;;;47.75;11.50;;;;;;;5.59;100.00;103554.28;4957894;28;20041;-73
2021/12/19 01:06:41;;;;;;;41.72;11.02;;;;;;;5.61;100.00;103567.59;4961432;28;20351;-74
2021/12/19 01:09:07;;;;;;;53.75;11.63;;;;;;;5.61;100.00;103557.81;4960736;28;20247;-74
2021/12/19 01:11:33;;;;;;;51.33;12.05;;;;;;;5.49;100.00;103555.28;4957239;28;20542;-74
2021/12/19 01:13:59;;;;;;;67.05;13.45;;;;;;;5.52;100.00;103553.50;4941989;28;20031;-73
2021/12/19 01:16:24;;;;;;;60.20;12.00;;;;;;;5.64;100.00;103556.88;4956843;28;20038;-73
2021/12/19 01:18:50;;;;;;;59.42;12.05;;;;;;;5.61;100.00;103555.16;4959477;28;20543;-73
2021/12/19 01:21:15;;;;;;;58.13;11.40;;;;;;;5.47;100.00;103535.78;4956763;28;20046;-73
2021/12/19 01:23:41;;;;;;;38.28;10.18;;;;;;;5.43;100.00;103537.63;4937779;28;20046;-74
2021/12/19 01:26:06;;;;;;;61.53;13.13;;;;;;;5.47;100.00;103538.44;4940866;28;20427;-73
2021/12/19 01:28:31;;;;;;;54.20;11.13;;;;;;;5.50;100.00;103541.97;4955693;28;20035;-74
2021/12/19 01:30:57;;;;;;;53.03;11.48;;;;;;;5.49;100.00;103539.31;4956121;28;20033;-74
2021/12/19 01:33:22;;;;;;;54.97;11.88;;;;;;;5.62;100.00;103540.94;4943132;28;20117;-73
2021/12/19 01:35:47;;;;;;;56.85;11.25;;;;;;;5.64;100.00;103546.22;4959855;28;20448;-74
2021/12/19 01:38:13;;;;;;;65.57;12.10;;;;;;;5.59;100.00;103532.97;4942553;28;20538;-74
2021/12/19 01:40:38;;;;;;;65.72;13.38;;;;;;;5.55;100.00;103541.91;4957349;28;20125;-74
2021/12/19 01:43:04;;;;;;;58.40;12.32;;;;;;;5.52;100.00;103542.84;4941863;28;20534;-73
2021/12/19 01:45:32;;;;;;;53.88;10.90;;;;;;;5.49;100.00;103534.88;4956501;28;20047;-74
2021/12/19 01:47:58;;;;;;;55.10;11.82;;;;;;;5.42;100.00;103540.31;4958733;28;20517;-73
2021/12/19 01:50:24;;;;;;;54.97;11.65;;;;;;;5.45;100.00;103545.56;4950696;28;20034;-73
2021/12/19 01:52:50;;;;;;;54.40;12.25;;;;;;;5.26;100.00;103540.47;4956933;28;20430;-74
2021/12/19 01:55:16;;;;;;;77.50;15.02;;;;;;;5.50;100.00;103533.97;4940709;28;20034;-73
2021/12/19 01:57:42;;;;;;;72.20;12.88;;;;;;;5.31;100.00;103537.75;4958459;28;20090;-73
2021/12/19 02:00:17;;;;;;;86.68;15.40;;;;;;;5.40;100.00;103533.22;4957848;28;20046;-73
2021/12/19 02:02:43;;;;;;;72.32;13.73;;;;;;;5.30;100.00;103539.53;4958157;28;20121;-72
2021/12/19 02:05:08;;;;;;;70.18;13.88;;;;;;;5.23;100.00;103528.09;4955402;28;20037;-74
2021/12/19 02:07:33;;;;;;;80.45;14.82;;;;;;;5.30;100.00;103520.91;4959888;28;20027;-73
2021/12/19 02:09:58;;;;;;;96.53;17.70;;;;;;;5.31;100.00;103524.44;4938256;28;20031;-72
2021/12/19 02:12:24;;;;;;;122.75;23.75;;;;;;;5.23;100.00;103522.75;4957270;28;20034;-74
2021/12/19 02:14:49;;;;;;;81.47;18.55;;;;;;;5.26;100.00;103519.16;4954497;28;20082;-73
2021/12/19 02:17:16;;;;;;;86.68;17.73;;;;;;;5.28;100.00;103520.03;4937269;28;20487;-75
2021/12/19 02:19:41;;;;;;;91.72;20.02;;;;;;;5.16;100.00;103517.53;4957172;28;20157;-74
2021/12/19 02:22:06;;;;;;;93.43;20.33;;;;;;;5.04;100.00;103521.19;4954926;28;20117;-73
2021/12/19 02:24:34;;;;;;;59.30;14.00;;;;;;;4.90;100.00;103497.41;4955279;28;20482;-74
2021/12/19 02:26:59;;;;;;;59.30;14.48;;;;;;;4.99;100.00;103512.41;4958916;28;20037;-73
2021/12/19 02:29:24;;;;;;;78.07;15.65;;;;;;;5.00;100.00;103507.03;4956155;28;20658;-73
2021/12/19 02:31:50;;;;;;;70.95;15.65;;;;;;;4.84;100.00;103487.69;4958600;28;20050;-74
2021/12/19 02:34:23;;;;;;;70.32;15.18;;;;;;;4.94;100.00;103512.44;4955624;28;20105;-74
2021/12/19 02:37:06;;;;;;;47.55;11.50;;;;;;;4.94;100.00;103500.03;4957947;28;20439;-74
2021/12/19 02:50:19;;;;;;;43.58;12.57;;;;;;;4.82;100.00;103500.13;4956906;28;20399;-74
2021/12/19 02:52:45;;;;;;;34.45;11.55;;;;;;;4.89;100.00;103500.97;4939180;28;20031;-74
2021/12/19 02:55:10;;;;;;;46.78;11.50;;;;;;;4.75;100.00;103478.03;4956456;28;20039;-74
2021/12/19 02:57:37;;;;;;;40.38;11.48;;;;;;;4.86;100.00;103495.69;4940590;28;20035;-74
2021/12/19 03:00:08;;;;;;;35.83;10.52;;;;;;;4.88;100.00;103497.41;4939204;28;20074;-74
2021/12/19 03:02:33;;;;;;;31.75;9.48;;;;;;;4.79;100.00;103477.13;4958428;28;20094;-74
2021/12/19 03:05:00;;;;;;;35.53;8.88;;;;;;;4.88;100.00;103485.91;4937642;28;20494;-74
2021/12/19 03:07:27;;;;;;;24.67;8.48;;;;;;;4.86;100.00;103477.06;4942878;28;20023;-74
2021/12/19 03:18:08;;;;;;;15.90;5.95;;;;;;;4.86;100.00;103453.09;4942087;28;20132;-74
2021/12/19 03:20:34;;;;;;;19.42;7.35;;;;;;;4.99;100.00;103476.00;4952332;28;20118;-74
2021/12/19 03:23:00;;;;;;;16.35;5.65;;;;;;;4.86;100.00;103475.25;4954031;28;20549;-74
2021/12/19 03:25:26;;;;;;;18.95;5.40;;;;;;;4.79;100.00;103479.78;4940297;28;20030;-74
2021/12/19 03:27:51;;;;;;;15.27;4.13;;;;;;;4.74;100.00;103454.13;4940316;28;20031;-74
2021/12/19 03:30:18;;;;;;;12.50;3.70;;;;;;;4.81;100.00;103471.75;4941347;28;20039;-74
2021/12/19 03:32:43;;;;;;;16.58;5.18;;;;;;;4.74;100.00;103449.66;4939508;28;20491;-74
2021/12/19 03:35:09;;;;;;;16.75;4.68;;;;;;;4.77;100.00;103460.28;4956535;28;20035;-74
2021/12/19 03:37:34;;;;;;;12.95;5.03;;;;;;;4.77;100.00;103460.28;4953109;28;20113;-74
2021/12/19 03:40:10;;;;;;;17.23;5.00;;;;;;;4.75;100.00;103448.75;4953788;28;20086;-73
2021/12/19 03:42:43;;;;;;;20.60;5.35;;;;;;;4.73;100.00;103468.31;4953657;28;20027;-73
2021/12/19 03:45:10;;;;;;;16.35;5.82;;;;;;;4.76;100.00;103452.31;4939635;28;20073;-74
2021/12/19 03:47:36;;;;;;;24.42;6.65;;;;;;;4.75;100.00;103443.44;4955021;28;20372;-73
2021/12/19 03:50:04;;;;;;;16.90;5.50;;;;;;;4.88;100.00;103446.84;4938982;28;20409;-74
2021/12/19 03:52:30;;;;;;;17.52;5.10;;;;;;;4.79;100.00;103441.59;4953650;28;20696;-73
2021/12/19 03:54:56;;;;;;;21.45;5.90;;;;;;;4.84;100.00;103446.91;4960303;28;20052;-74
2021/12/19 03:57:21;;;;;;;23.67;6.45;;;;;;;4.80;100.00;103435.38;4955670;28;20487;-74
2021/12/19 03:59:48;;;;;;;18.45;5.32;;;;;;;4.86;100.00;103439.78;4950479;28;20875;-74
2021/12/19 04:02:16;;;;;;;17.38;5.80;;;;;;;4.86;100.00;103434.47;4956013;28;20346;-74
2021/12/19 04:04:41;;;;;;;18.48;5.88;;;;;;;4.84;100.00;103414.97;4953823;28;20247;-74
2021/12/19 04:07:07;;;;;;;22.77;5.95;;;;;;;4.84;100.00;103421.16;4954826;28;20488;-74
2021/12/19 04:09:32;;;;;;;25.48;5.65;;;;;;;4.95;100.00;103416.59;4939088;28;20062;-74
2021/12/19 04:11:57;;;;;;;25.75;5.82;;;;;;;4.97;100.00;103410.34;4953672;28;20065;-74
2021/12/19 04:14:23;;;;;;;21.10;5.15;;;;;;;4.81;100.00;103415.84;4963551;28;20114;-73
2021/12/19 04:16:48;;;;;;;17.73;5.05;;;;;;;4.83;100.00;103400.75;4955353;28;20038;-74
2021/12/19 04:19:14;;;;;;;17.92;4.88;;;;;;;4.89;100.00;103391.81;4938303;28;20467;-74
2021/12/19 04:21:39;;;;;;;16.63;5.07;;;;;;;4.92;100.00;103389.09;4956782;28;20627;-73
2021/12/19 04:24:05;;;;;;;13.73;4.70;;;;;;;4.73;100.00;103378.69;4955688;28;20455;-74
2021/12/19 04:26:30;;;;;;;17.17;4.90;;;;;;;4.87;100.00;103377.66;4951452;28;20644;-74
2021/12/19 04:28:56;;;;;;;16.17;4.97;;;;;;;4.85;100.00;103374.13;4954206;28;20026;-73
2021/12/19 04:31:22;;;;;;;18.75;4.90;;;;;;;4.85;100.00;103379.44;4938419;28;20043;-74
2021/12/19 04:33:48;;;;;;;17.65;4.45;;;;;;;4.86;100.00;103363.44;4934342;28;20420;-74
2021/12/19 04:36:21;;;;;;;12.73;3.92;;;;;;;4.81;100.00;103367.94;4955838;28;20333;-74
2021/12/19 04:39:20;;;;;;;13.90;4.15;;;;;;;4.79;100.00;103353.78;4939434;28;20038;-71
2021/12/19 04:42:13;;;;;;;15.80;4.18;;;;;;;4.81;100.00;103359.97;4954966;28;20553;-74
2021/12/19 04:52:56;;;;;;;18.45;5.78;;;;;;;4.82;100.00;103356.38;4955370;28;20113;-73
2021/12/19 04:58:15;;;;;;;13.75;4.05;;;;;;;4.87;100.00;103346.56;4952065;28;20058;-73
2021/12/19 05:00:53;;;;;;;17.08;4.85;;;;;;;4.79;100.00;103356.44;4957595;28;20305;-74
2021/12/19 05:06:04;;;;;;;12.80;4.78;;;;;;;4.82;100.00;103353.72;4952809;28;20114;-73
2021/12/19 05:14:18;;;;;;;;;;;;;;;4.86;100.00;103351.94;4958659;28;20370;-74
2021/12/19 05:16:46;;;;;;;10.00;3.40;;;;;;;4.86;100.00;103351.94;4958173;28;19926;-74
2021/12/19 05:19:28;;;;;;;16.90;4.88;;;;;;;4.85;100.00;103359.03;4928643;28;20933;-73
2021/12/19 05:21:58;;;;;;;21.10;4.60;;;;;;;4.80;100.00;103356.44;4944961;28;20038;-72
2021/12/19 05:24:47;;;;;;;10.43;3.53;;;;;;;4.83;100.00;103365.28;4957291;28;20541;-72
2021/12/19 05:27:12;;;;;;;16.05;3.72;;;;;;;4.89;100.00;103358.09;4956254;28;20031;-74
2021/12/19 05:29:38;;;;;;;12.95;3.95;;;;;;;4.80;100.00;103345.78;4956396;28;20503;-74
2021/12/19 05:32:04;;;;;;;11.13;3.97;;;;;;;4.93;100.00;103356.25;4954877;28;20042;-73
2021/12/19 05:34:30;;;;;;;21.25;4.25;;;;;;;4.94;100.00;103345.59;4956281;28;20031;-74
2021/12/19 05:45:12;;;;;;;18.98;3.75;;;;;;;4.83;100.00;103320.88;4955299;28;20127;-73
2021/12/19 05:47:38;;;;;;;12.75;3.78;;;;;;;4.86;100.00;103331.50;4942409;28;20031;-74
2021/12/19 05:50:05;;;;;;;12.73;3.72;;;;;;;4.92;100.00;103346.50;4940910;28;20038;-74
2021/12/19 05:52:30;;;;;;;15.15;3.65;;;;;;;4.92;100.00;103341.16;4954034;28;20026;-74
2021/12/19 05:54:55;;;;;;;15.85;3.30;;;;;;;4.94;100.00;103334.94;4938077;28;20033;-73
2021/12/19 05:57:21;;;;;;;13.85;3.42;;;;;;;4.95;100.00;103330.47;4959161;28;20062;-73
2021/12/19 05:59:46;;;;;;;14.48;4.13;;;;;;;4.92;100.00;103320.78;4955161;28;20026;-73
2021/12/19 06:02:11;;;;;;;16.20;3.80;;;;;;;5.03;100.00;103333.06;4958539;28;20038;-73
2021/12/19 06:04:37;;;;;;;18.77;4.10;;;;;;;4.98;100.00;103318.94;4959442;28;20097;-73
2021/12/19 06:07:02;;;;;;;15.10;3.97;;;;;;;5.04;100.00;103332.13;4942563;28;20026;-74
2021/12/19 06:09:28;;;;;;;10.07;3.72;;;;;;;4.95;100.00;103320.72;4955364;28;20126;-74
2021/12/19 06:11:53;;;;;;;16.15;4.45;;;;;;;5.12;100.00;103330.25;4955205;28;20038;-74
2021/12/19 06:14:18;;;;;;;14.95;2.85;;;;;;;5.12;100.00;103330.25;4955398;28;20436;-73
2021/12/19 06:16:44;;;;;;;20.58;4.07;;;;;;;5.13;100.00;103323.16;4956202;28;20030;-73
2021/12/19 06:19:09;;;;;;;15.75;5.00;;;;;;;5.16;100.00;103318.66;4958483;28;20035;-73
2021/12/19 06:21:34;;;;;;;22.92;4.32;;;;;;;5.09;100.00;103309.88;4956713;28;20109;-73
2021/12/19 06:23:59;;;;;;;13.15;3.90;;;;;;;5.17;100.00;103311.53;4954907;28;20109;-73
2021/12/19 06:26:25;;;;;;;20.15;4.35;;;;;;;5.06;100.00;103296.59;4956373;28;20023;-73
2021/12/19 06:28:50;;;;;;;18.55;4.80;;;;;;;5.14;100.00;103314.25;4955650;28;20587;-73
2021/12/19 06:31:16;;;;;;;16.88;3.75;;;;;;;5.06;100.00;103301.94;4958512;28;20058;-73
2021/12/19 06:33:42;;;;;;;20.40;4.50;;;;;;;5.24;100.00;103310.53;4955410;28;20042;-73
2021/12/19 06:36:09;;;;;;;20.77;4.40;;;;;;;5.21;100.00;103305.25;4939534;28;20042;-73
2021/12/19 06:38:34;;;;;;;20.20;4.30;;;;;;;5.22;100.00;103296.34;4954669;28;20098;-72
2021/12/19 06:40:59;;;;;;;22.38;4.75;;;;;;;5.19;100.00;103289.31;4962283;28;20027;-73
2021/12/19 06:43:26;;;;;;;17.15;4.97;;;;;;;5.23;100.00;103296.34;4955888;28;20061;-73
2021/12/19 06:45:52;;;;;;;26.30;4.95;;;;;;;5.23;100.00;103293.69;4956615;28;20110;-73
2021/12/19 06:48:19;;;;;;;20.85;4.53;;;;;;;5.25;100.00;103301.63;4959280;28;20125;-73
2021/12/19 06:50:45;;;;;;;19.20;5.70;;;;;;;5.28;100.00;103295.41;4954650;28;20074;-73
2021/12/19 06:53:10;;;;;;;20.60;5.93;;;;;;;5.23;100.00;103287.47;4941239;28;20035;-73
2021/12/19 06:55:37;;;;;;;26.77;7.53;;;;;;;5.35;100.00;103291.72;4957198;28;20078;-73
2021/12/19 06:58:02;;;;;;;21.52;5.88;;;;;;;5.39;100.00;103294.31;4957248;28;20031;-73
2021/12/19 07:00:28;;;;;;;26.05;6.63;;;;;;;5.32;100.00;103291.75;4957514;28;20089;-73
2021/12/19 07:02:54;;;;;;;24.02;4.95;;;;;;;5.44;100.00;103291.56;4939987;28;20035;-73
2021/12/19 07:05:20;;;;;;;29.48;5.22;;;;;;;5.42;100.00;103281.84;4956367;28;20031;-74
2021/12/19 07:07:45;;;;;;;25.17;6.07;;;;;;;5.36;100.00;103267.72;4960601;28;20045;-73
2021/12/19 07:10:11;;;;;;;30.05;6.22;;;;;;;5.43;100.00;103279.16;4955904;28;20073;-73
2021/12/19 07:12:36;;;;;;;29.17;5.38;;;;;;;5.47;100.00;103277.31;4959405;28;20030;-73
2021/12/19 07:15:03;;;;;;;21.88;5.28;;;;;;;5.42;100.00;103273.88;4953456;28;20026;-73
2021/12/19 07:17:28;;;;;;;34.45;6.07;;;;;;;5.43;100.00;103288.94;4942184;28;20047;-73
2021/12/19 07:19:54;;;;;;;20.83;4.85;;;;;;;5.53;100.00;103280.75;4948077;28;20035;-73
2021/12/19 07:22:19;;;;;;;39.08;10.32;;;;;;;5.49;100.00;103280.81;4959543;28;20027;-73
2021/12/19 07:24:45;;;;;;;24.15;5.90;;;;;;;5.53;100.00;103287.88;4956862;28;20039;-73
2021/12/19 07:27:12;;;;;;;24.48;4.88;;;;;;;5.43;100.00;103275.63;4960007;28;20605;-74
2021/12/19 07:29:38;;;;;;;27.05;6.47;;;;;;;5.47;100.00;103279.97;4952369;28;20055;-73
2021/12/19 07:32:03;;;;;;;18.83;5.95;;;;;;;5.53;100.00;103280.75;4947112;28;20198;-73
2021/12/19 07:34:32;;;;;;;26.92;6.55;;;;;;;5.53;100.00;103269.22;4954065;28;20045;-73
2021/12/19 07:36:58;;;;;;;32.63;11.38;;;;;;;5.56;100.00;103271.81;4959055;28;20129;-73
2021/12/19 07:41:58;;;;;;;32.47;13.07;;;;;;;5.51;100.00;103263.91;4955177;28;20026;-73
2021/12/19 07:44:23;;;;;;;34.58;11.57;;;;;;;5.61;100.00;103261.97;4939134;28;20498;-73
2021/12/19 07:46:49;;;;;;;23.67;8.30;;;;;;;5.56;100.00;103267.34;4954248;28;20031;-73
2021/12/19 07:49:14;;;;;;;26.23;8.85;;;;;;;5.52;100.00;103252.34;4953776;28;20035;-73
2021/12/19 07:51:40;;;;;;;27.70;8.30;;;;;;;5.47;100.00;103254.22;4934936;28;20037;-73
2021/12/19 07:54:05;;;;;;;31.08;7.82;;;;;;;5.56;100.00;103261.16;4958635;28;20062;-73
2021/12/19 07:56:31;;;;;;;28.63;10.57;;;;;;;5.64;100.00;103261.91;4949246;28;20253;-73
2021/12/19 07:58:56;;;;;;;24.98;7.20;;;;;;;5.66;100.00;103253.88;4954832;28;20034;-73
2021/12/19 08:01:22;;;;;;;29.40;10.73;;;;;;;5.71;100.00;103252.00;4950732;28;20072;-73
2021/12/19 08:03:47;;;;;;;34.85;10.65;;;;;;;5.65;100.00;103228.13;4956182;28;20074;-73
2021/12/19 08:06:12;;;;;;;26.70;7.35;;;;;;;5.83;100.00;103250.91;4951884;28;20070;-73
2021/12/19 08:08:38;;;;;;;27.20;8.77;;;;;;;5.82;100.00;103243.81;4954205;28;20043;-73
2021/12/19 08:13:47;;;;;;;;;;;;;;;5.84;100.00;103258.00;4958472;28;20113;-73
2021/12/19 08:16:13;;;;;;;16.83;5.30;;;;;;;5.82;100.00;103246.47;4952787;28;20385;-73
2021/12/19 08:18:38;;;;;;;20.73;5.40;;;;;;;6.04;100.00;103262.09;4955056;28;20437;-73
2021/12/19 08:21:04;;;;;;;23.05;5.18;;;;;;;6.04;100.00;103249.66;4953320;28;20046;-73
2021/12/19 08:23:29;;;;;;;16.95;4.00;;;;;;;6.07;100.00;103236.25;4953932;28;20027;-73
2021/12/19 08:25:54;;;;;;;15.45;4.15;;;;;;;6.13;100.00;103249.44;4952043;28;20031;-73
2021/12/19 08:28:20;;;;;;;15.73;3.58;;;;;;;6.25;100.00;103234.09;4947680;28;20070;-73
2021/12/19 08:30:45;;;;;;;14.75;3.28;;;;;;;6.35;100.00;103253.47;4951566;28;20063;-73
2021/12/19 08:33:11;;;;;;;12.40;3.03;;;;;;;6.28;100.00;103250.91;4953779;28;20114;-73
2021/12/19 08:35:36;;;;;;;11.68;3.15;;;;;;;6.37;100.00;103255.16;4953238;28;20557;-73
2021/12/19 08:38:01;;;;;;;8.13;2.38;;;;;;;6.35;100.00;103249.00;4955102;28;20475;-73
2021/12/19 08:40:28;;;;;;;11.02;2.65;;;;;;;6.51;100.00;103248.66;4954705;28;20429;-73
2021/12/19 08:42:53;;;;;;;9.38;2.85;;;;;;;6.39;100.00;103233.81;4952812;28;20121;-73
2021/12/19 08:45:20;;;;;;;7.40;2.20;;;;;;;6.41;100.00;103238.19;4955036;28;20081;-73
2021/12/19 08:47:45;;;;;;;8.45;2.42;;;;;;;6.33;100.00;103240.16;4957132;28;20031;-73
2021/12/19 08:50:11;;;;;;;5.72;2.22;;;;;;;6.14;100.00;103239.66;4958360;28;20042;-73
2021/12/19 08:52:37;;;;;;;5.65;1.95;;;;;;;6.15;100.00;103238.75;4935810;28;20030;-73
2021/12/19 08:55:05;;;;;;;2.33;1.40;;;;;;;6.22;100.00;103237.72;4957001;28;20038;-73
2021/12/19 08:57:30;;;;;;;5.03;1.85;;;;;;;6.07;100.00;103219.34;4940571;28;20054;-73
2021/12/19 08:59:56;;;;;;;5.43;2.20;;;;;;;6.32;100.00;103238.41;4955274;28;20051;-73
2021/12/19 09:02:21;;;;;;;1.90;1.05;;;;;;;6.47;100.00;103226.53;4954629;28;20054;-73
2021/12/19 09:04:46;;;;;;;5.40;2.28;;;;;;;6.66;100.00;103229.63;4939902;28;20443;-73
2021/12/19 09:07:14;;;;;;;8.25;5.13;;;;;;;6.68;100.00;103214.44;4952917;28;20078;-73
2021/12/19 09:09:39;;;;;;;1.92;1.63;;;;;;;6.71;100.00;103226.88;4940013;28;20031;-73
2021/12/19 09:12:04;;;;;;;2.85;1.77;;;;;;;6.74;100.00;103235.69;4956136;28;20039;-73
2021/12/19 09:14:30;;;;;;;1.30;1.02;;;;;;;6.53;100.00;103217.50;4959353;28;20733;-73
2021/12/19 09:16:55;;;;;;;11.38;6.30;;;;;;;6.77;100.00;103236.53;4956702;28;20530;-73
2021/12/19 09:19:21;;;;;;;5.13;4.63;;;;;;;6.79;100.00;103237.38;4943548;28;20481;-73
2021/12/19 09:21:46;;;;;;;1.90;1.77;;;;;;;6.71;100.00;103235.75;4955544;28;20618;-73
2021/12/19 09:24:12;;;;;;;6.70;2.05;;;;;;;6.85;100.00;103232.75;4957996;28;20026;-73
2021/12/19 09:26:38;;;;;;;2.42;1.25;;;;;;;6.51;100.00;103227.31;4955164;28;20047;-73
2021/12/19 09:29:03;;;;;;;2.20;1.92;;;;;;;6.54;100.00;103225.44;4953462;28;20485;-73
2021/12/19 09:31:29;;;;;;;1.25;1.15;;;;;;;6.58;100.00;103227.13;4952727;28;20043;-73
2021/12/19 09:33:54;;;;;;;2.58;1.70;;;;;;;6.79;100.00;103234.69;4951025;28;20054;-73
2021/12/19 09:36:19;;;;;;;0.93;0.88;;;;;;;6.73;100.00;103227.72;4954127;28;20030;-73
2021/12/19 09:38:48;;;;;;;1.52;0.85;;;;;;;7.25;100.00;103241.59;4959133;28;20457;-73
2021/12/19 09:41:16;;;;;;;1.95;0.90;;;;;;;7.38;100.00;103242.16;4955864;28;20027;-73
2021/12/19 09:43:42;;;;;;;1.35;0.32;;;;;;;7.33;100.00;103228.00;4959008;28;20652;-73
2021/12/19 09:46:18;;;;;;;0.95;0.77;;;;;;;7.38;100.00;103241.28;4951503;28;20041;-73
2021/12/19 09:48:45;;;;;;;2.20;0.90;;;;;;;7.38;100.00;103241.28;4958650;28;20039;-73
2021/12/19 09:51:12;;;;;;;2.85;0.70;;;;;;;7.19;100.00;103236.38;4958277;28;20093;-73
2021/12/19 09:53:39;;;;;;;1.00;0.70;;;;;;;7.22;100.00;103236.31;4951382;28;20026;-73
2021/12/19 09:56:04;;;;;;;24.23;10.93;;;;;;;6.83;100.00;103239.91;4934859;28;20170;-73
2021/12/19 09:58:32;;;;;;;4.05;3.65;;;;;;;6.97;100.00;103236.06;4949437;28;20035;-73
2021/12/19 10:00:58;;;;;;;3.97;3.65;;;;;;;6.77;100.00;103231.19;4938863;28;20727;-73
2021/12/19 10:03:23;;;;;;;4.53;4.13;;;;;;;6.86;100.00;103230.97;4954209;28;20045;-73
2021/12/19 10:05:49;;;;;;;3.45;2.70;;;;;;;6.68;100.00;103222.47;4955893;28;20583;-73
2021/12/19 10:08:23;;;;;;;2.92;2.03;;;;;;;6.88;100.00;103232.69;4955406;28;20031;-72
2021/12/19 10:10:58;;;;;;;;;;;;;;;6.75;100.00;103232.09;4954958;28;20030;-73
2021/12/19 10:13:30;;;;;;;;;;;;;;;6.70;100.00;103228.66;4954338;28;19917;-73
2021/12/19 10:15:55;;;;;;;1.48;1.20;;;;;;;6.77;100.00;103237.38;4954199;28;19969;-73
2021/12/19 10:18:20;;;;;;;1.33;1.05;;;;;;;6.77;100.00;103232.03;4942637;28;20027;-73
2021/12/19 10:20:49;;;;;;;2.72;0.75;;;;;;;6.84;100.00;103220.31;4954824;28;20374;-73
2021/12/19 10:23:18;;;;;;;2.28;2.08;;;;;;;6.79;100.00;103213.34;4943577;28;20035;-72
2021/12/19 10:25:44;;;;;;;0.90;0.90;;;;;;;6.78;100.00;103215.09;4954899;28;20035;-73
2021/12/19 10:28:10;;;;;;;1.27;1.00;;;;;;;6.95;100.00;103221.84;4943296;28;20482;-72
2021/12/19 10:30:49;;;;;;;7.75;1.30;;;;;;;6.95;100.00;103205.84;4956405;28;20054;-73
2021/12/19 10:33:23;;;;;;;1.80;1.40;;;;;;;7.01;100.00;103211.03;4953033;28;20042;-72
2021/12/19 10:36:09;;;;;;;3.63;2.78;;;;;;;6.62;100.00;103195.03;4954692;28;20104;-73
2021/12/19 10:38:39;;;;;;;1.75;1.20;;;;;;;6.82;100.00;103198.09;4954628;28;20035;-73
2021/12/19 10:41:07;;;;;;;2.88;1.00;;;;;;;6.95;100.00;103203.16;4916506;28;20094;-73
2021/12/19 10:43:33;;;;;;;2.28;1.70;;;;;;;6.95;100.00;103200.50;4953520;28;20050;-73
2021/12/19 10:46:02;;;;;;;1.20;1.00;;;;;;;6.96;100.00;103191.56;4958541;28;20036;-73
2021/12/19 10:48:36;;;;;;;1.38;0.93;;;;;;;6.93;100.00;103187.16;4956463;28;20030;-73
2021/12/19 10:51:07;;;;;;;8.80;5.15;;;;;;;6.87;100.00;103190.00;4950626;28;20379;-73
2021/12/19 10:53:44;;;;;;;17.50;9.00;;;;;;;6.66;100.00;103175.38;4953535;28;20057;-73
2021/12/19 10:56:19;;;;;;;27.80;13.40;;;;;;;6.49;100.00;103167.75;4954410;28;20038;-73
2021/12/19 10:58:56;;;;;;;11.73;7.25;;;;;;;6.65;100.00;103173.63;4955104;28;20706;-73
2021/12/19 11:01:31;;;;;;;18.13;9.93;;;;;;;6.49;100.00;103165.09;4950593;28;20144;-73
2021/12/19 11:04:02;;;;;;;14.13;7.53;;;;;;;6.45;100.00;103161.63;4956432;28;20144;-73
2021/12/19 11:06:47;;;;;;;13.45;7.55;;;;;;;6.37;100.00;103150.22;4952281;28;20506;-73
2021/12/19 11:09:16;;;;;;;11.05;3.95;;;;;;;6.35;100.00;103144.94;4956169;28;20031;-74
2021/12/19 11:11:43;;;;;;;6.75;3.00;;;;;;;6.43;100.00;103139.44;4954064;28;20030;-73
2021/12/19 11:14:14;;;;;;;5.57;4.05;;;;;;;6.41;100.00;103133.25;4955435;28;20390;-73
2021/12/19 11:16:40;;;;;;;8.65;7.65;;;;;;;6.34;100.00;103136.97;4950842;28;20035;-73
2021/12/19 11:19:06;;;;;;;6.80;4.38;;;;;;;6.29;100.00;103118.41;4940660;28;20069;-74
2021/12/19 11:21:34;;;;;;;6.10;4.05;;;;;;;6.27;100.00;103130.91;4937479;28;20114;-73
2021/12/19 11:24:02;;;;;;;9.70;4.07;;;;;;;6.29;100.00;103123.75;4935153;28;20035;-73
2021/12/19 11:26:28;;;;;;;10.52;4.72;;;;;;;6.17;100.00;103106.22;4956122;28;20041;-74
2021/12/19 11:28:55;;;;;;;13.57;10.68;;;;;;;6.37;100.00;103123.56;4954869;28;20391;-73
2021/12/19 11:31:20;;;;;;;5.80;4.60;;;;;;;6.53;100.00;103116.06;4948057;28;20764;-73
2021/12/19 11:34:11;;;;;;;4.05;2.40;;;;;;;6.40;100.00;103108.34;4935346;28;20170;-74
2021/12/19 11:36:44;;;;;;;3.97;2.72;;;;;;;6.71;100.00;103120.06;4951039;28;20137;-73
2021/12/19 11:39:10;;;;;;;4.90;2.30;;;;;;;6.77;100.00;103116.38;4952313;28;20513;-73
2021/12/19 11:41:35;;;;;;;4.10;2.85;;;;;;;6.46;100.00;103118.00;4935695;28;20051;-74
2021/12/19 11:44:04;;;;;;;6.05;3.20;;;;;;;6.47;100.00;103113.53;4942997;28;20081;-73
2021/12/19 11:47:04;;;;;;;2.75;2.00;;;;;;;6.74;100.00;103122.69;4956982;28;20110;-72
2021/12/19 11:49:31;;;;;;;5.00;2.55;;;;;;;6.55;100.00;103104.41;4943304;28;20053;-73
2021/12/19 11:52:27;;;;;;;5.43;3.40;;;;;;;6.45;100.00;103092.22;4957177;28;20042;-74
2021/12/19 11:55:13;;;;;;;4.07;2.83;;;;;;;6.50;100.00;103102.78;4949609;28;20034;-72
2021/12/19 11:57:40;;;;;;;8.27;3.33;;;;;;;6.42;100.00;103081.63;4951422;28;20038;-73
2021/12/19 12:00:32;;;;;;;7.18;4.43;;;;;;;6.34;100.00;103071.16;4939639;28;20031;-72
2021/12/19 12:03:12;;;;;;;3.92;2.83;;;;;;;6.38;100.00;103087.94;4950123;28;20040;-73
2021/12/19 12:05:44;;;;;;;4.85;3.08;;;;;;;6.25;100.00;103084.69;4956547;28;20019;-73
2021/12/19 12:08:13;;;;;;;5.68;2.65;;;;;;;6.16;100.00;103083.13;4946585;28;20026;-73
2021/12/19 12:10:47;;;;;;;6.93;2.40;;;;;;;6.31;100.00;103076.56;4947507;28;20066;-73
2021/12/19 12:13:24;;;;;;;9.63;3.50;;;;;;;6.48;100.00;103078.81;4950192;28;20490;-73
2021/12/19 12:15:52;;;;;;;6.75;2.85;;;;;;;6.40;100.00;103078.97;4948663;28;20062;-73
2021/12/19 12:18:29;;;;;;;7.10;2.60;;;;;;;6.16;100.00;103067.13;4953083;28;20551;-74
2021/12/19 12:20:54;;;;;;;5.90;2.65;;;;;;;6.46;100.00;103072.63;4956033;28;20042;-72